Terminal Aerodrome Forecast
Issued by NWS Shreveport, LA

Home | Current Version | Previous Version | Text Only | Print | Product List | Glossary On
Versions: 1 2 3 4 5 6 7 8 9 10 11 12 13 14 15 16 17
000
FTUS44 KSHV 300539
TAFGGG
TAF
KGGG 300539Z 3006/3106 VRB04KT P6SM SCT050 BKN150 BKN250
      TEMPO 3010/3013 5SM BR
     FM301400 06003KT P6SM SCT060 SCT150 BKN250
     FM301800 04007KT P6SM VCSH BKN045 OVC080
     FM310000 VRB03KT P6SM BKN050 OVC250=

USA.gov is the U.S. government's official web portal to all federal, state and local government web resources and services.